SVPL1: Red River at Shreveport Site 2

                                SHEF ID:       SVPL1     Red River at Shreveport Site 2
STATION TYPE:

PRECIP STAGE RIV-FLOW VOLTAGE
in ft cfs volt
Ccp-Rev Ccp-Rev Ccp-Rev Ccp-Rev
(America/Chicago)
06/27 00:00 0.00 25.03 78300 12.83
06/27 01:00 0.00 25.08 78800 12.82
06/27 02:00 0.00 25.05 78500 12.80
06/27 03:00 0.00 25.12 79200 12.79
06/27 04:00 0.00 25.19 79900 12.78
06/27 05:00 0.00 25.25 80500 12.77
06/27 06:00 0.00 25.29 80900 12.76
06/27 07:00 0.00 25.35 81500 12.80
06/27 08:00 0.00 25.33 81300 12.99
06/27 09:00 0.00 25.31 81100 13.28
06/27 10:00 0.00 25.36 81600 13.05
06/27 11:00 0.00 25.43 82300 13.06
06/27 12:00 0.00 25.40 82000 13.07
06/27 13:00 0.00 25.51 83100 13.06
06/27 14:00 0.00 25.52 83200 13.07
06/27 15:00 0.00 25.46 82600 13.09
06/27 16:00 0.00 25.49 82900 13.07
06/27 17:00 0.00 25.55 83500 13.06
06/27 18:00 0.00 25.64 84400 13.06
06/27 19:00 0.00 25.66 84600 12.91
06/27 20:00 0.00 25.69 84900 12.88
06/27 21:00 0.00 25.64 84400 12.86
06/27 22:00 0.00 25.62 84200 12.84
06/27 23:00 0.00 25.64 84400 12.86
Data processed at Sun 28Jun2026 04:24 GMT

NOTICE: If you are parsing this page

Please convert to using our Data API. Starting early 2026 we will be migrating to: https://water.usace.army.mil with modern pages rendered in JavaScript. When this migration completes you will no longer be able to scrape this page! CWMSDataAPI (CDA)

Timeseries IDs (TSIDs)

TSIDs used from left to right in the data table
SHRE.Precip-Inc.Total.1Hour.1Hour.Ccp-Rev
SHRE.Stage.Inst.1Hour.0.Ccp-Rev
SHRE.Flow.Inst.1Hour.0.Ccp-Rev
SHRE.Volt-Battery.Inst.1Hour.0.Ccp-Rev

                            

All information presented herein is the property of the government of the United States of America and may be revised or deleted at any time without prior notice. Dissemination of this information without the expressed written consent of the Public Affairs Office, Tulsa District U.S. Army Corps of Engineers is strictly prohibited. These data are gathered electronically and, as presented, have NOT undergone any form of quality control. These data are NOT guaranteed to be valid or correct.